Time;durP1;ratioP1;P1;durP2;ratioP2;P2;SDS_P1;SDS_P2;PMS_P1;PMS_P2;Temp;Humidity;BMP_temperature;BMP_pressure;BME280_temperature;BME280_humidity;BME280_pressure;Samples;Min_cycle;Max_cycle;Signal;HPM_P1;HPM_P2
2022/03/19 00:00:36;;;;;;;36.90;15.45;;;;;;;8.94;54.37;100145.31;5080613;28;20056;-95
2022/03/19 00:03:02;;;;;;;41.42;17.88;;;;;;;8.92;54.42;100150.59;5078566;28;20037;-95
2022/03/19 00:05:30;;;;;;;35.45;15.80;;;;;;;8.92;54.65;100153.25;5082919;28;20052;-95
2022/03/19 00:07:56;;;;;;;40.03;17.25;;;;;;;8.91;53.97;100151.47;5079384;28;20136;-93
2022/03/19 00:10:22;;;;;;;39.28;15.80;;;;;;;9.07;53.63;100154.19;5078570;28;20076;-94
2022/03/19 00:12:49;;;;;;;42.90;17.55;;;;;;;9.07;53.93;100155.06;5079995;28;20052;-95
2022/03/19 00:15:16;;;;;;;39.22;16.70;;;;;;;8.98;53.96;100155.06;5080745;28;20070;-95
2022/03/19 00:17:42;;;;;;;40.92;16.30;;;;;;;8.98;54.12;100157.72;5079702;28;20045;-95
2022/03/19 00:20:10;;;;;;;40.75;18.42;;;;;;;8.93;54.32;100154.13;5081800;28;20166;-94
2022/03/19 00:22:39;;;;;;;43.47;17.15;;;;;;;8.94;54.15;100161.22;5080735;28;20502;-95
2022/03/19 00:25:08;;;;;;;37.45;16.42;;;;;;;9.05;53.86;100163.00;5068077;28;20041;-92
2022/03/19 00:27:34;;;;;;;38.92;16.48;;;;;;;9.08;54.00;100163.91;5064912;28;20041;-94
2022/03/19 00:30:00;;;;;;;40.45;15.75;;;;;;;9.12;53.65;100165.66;5066174;28;20071;-94
2022/03/19 00:32:26;;;;;;;40.35;18.02;;;;;;;9.12;53.65;100163.91;5065364;28;20052;-94
2022/03/19 00:34:52;;;;;;;38.38;16.90;;;;;;;8.92;54.06;100149.72;5066149;28;20049;-95
2022/03/19 00:37:18;;;;;;;39.70;16.10;;;;;;;8.83;53.80;100134.69;5066221;28;20055;-95
2022/03/19 00:39:45;;;;;;;42.97;16.40;;;;;;;8.96;53.65;100172.72;5067052;28;20061;-96
2022/03/19 00:42:12;;;;;;;41.05;16.23;;;;;;;8.79;53.51;100152.34;5065517;28;20391;-94
2022/03/19 00:44:37;;;;;;;38.33;16.55;;;;;;;8.73;53.29;100149.69;5067439;28;20055;-94
2022/03/19 00:47:04;;;;;;;39.20;17.40;;;;;;;8.81;52.78;100147.06;5065498;28;20616;-95
2022/03/19 00:49:30;;;;;;;36.72;16.48;;;;;;;8.87;52.51;100157.69;5065655;28;20045;-95
2022/03/19 00:51:56;;;;;;;39.20;17.67;;;;;;;8.80;52.71;100143.53;5058005;28;20045;-96
2022/03/19 00:54:22;;;;;;;37.85;15.82;;;;;;;8.94;51.59;100155.94;5061810;28;20099;-93
2022/03/19 00:56:50;;;;;;;41.10;17.02;;;;;;;8.93;51.58;100160.31;5065835;28;20041;-95
2022/03/19 00:59:16;;;;;;;39.00;16.70;;;;;;;8.89;52.07;100150.63;5066327;28;20045;-95
2022/03/19 01:01:42;;;;;;;41.60;17.58;;;;;;;8.86;51.82;100134.69;5061479;28;20055;-95
2022/03/19 01:04:07;;;;;;;43.15;18.30;;;;;;;8.88;52.27;100143.53;5047125;28;20068;-95
2022/03/19 01:06:33;;;;;;;44.42;20.08;;;;;;;8.91;52.06;100134.69;5062461;28;20060;-93
2022/03/19 01:08:59;;;;;;;44.65;17.90;;;;;;;8.88;52.45;100143.53;5064865;28;20143;-94
2022/03/19 01:11:25;;;;;;;44.33;17.73;;;;;;;8.92;52.48;100145.31;5055803;28;20063;-95
2022/03/19 01:13:54;;;;;;;45.35;18.58;;;;;;;8.93;52.93;100159.44;5064576;28;20059;-96
2022/03/19 01:16:20;;;;;;;54.35;18.77;;;;;;;8.86;53.08;100153.25;5065115;28;20045;-94
2022/03/19 01:18:46;;;;;;;43.53;17.65;;;;;;;8.76;53.52;100149.69;5065365;28;20041;-96
2022/03/19 01:21:12;;;;;;;46.10;18.38;;;;;;;8.86;53.21;100141.75;5063979;28;20049;-96
2022/03/19 01:23:38;;;;;;;44.92;18.20;;;;;;;8.89;53.79;100149.72;5063787;28;20052;-93
2022/03/19 01:26:04;;;;;;;49.35;18.35;;;;;;;8.80;54.09;100129.34;5062753;28;20049;-96
2022/03/19 01:28:30;;;;;;;47.63;17.40;;;;;;;8.80;54.31;100140.88;5064552;28;20045;-95
2022/03/19 01:30:57;;;;;;;48.10;19.88;;;;;;;8.76;54.91;100138.19;5062818;28;20041;-96
2022/03/19 01:33:23;;;;;;;45.22;18.92;;;;;;;8.76;54.99;100133.78;5062429;28;20044;-95
2022/03/19 01:35:49;;;;;;;51.83;20.58;;;;;;;8.74;55.47;100132.91;5061493;28;20045;-96
2022/03/19 01:38:15;;;;;;;48.88;18.77;;;;;;;8.70;55.66;100133.78;5064363;28;20075;-96
2022/03/19 01:40:41;;;;;;;42.00;17.92;;;;;;;8.73;56.03;100130.22;5063396;28;20506;-95
2022/03/19 01:43:07;;;;;;;41.58;18.30;;;;;;;8.80;56.29;100140.88;5061335;28;20037;-95
2022/03/19 01:45:33;;;;;;;43.15;19.70;;;;;;;9.00;56.21;100172.75;5060244;28;20044;-95
2022/03/19 01:48:01;;;;;;;41.80;18.33;;;;;;;8.89;56.28;100162.97;5064054;28;20052;-94
2022/03/19 01:50:28;;;;;;;51.78;20.08;;;;;;;8.67;56.95;100133.75;5063821;28;20573;-95
2022/03/19 01:52:56;;;;;;;48.30;19.60;;;;;;;8.65;56.86;100140.81;5062480;28;20456;-95
2022/03/19 01:55:24;;;;;;;54.38;21.05;;;;;;;8.72;57.08;100145.28;5063029;28;20045;-95
2022/03/19 01:57:51;;;;;;;46.63;19.43;;;;;;;8.57;57.10;100116.94;5061256;28;20051;-95
2022/03/19 02:00:19;;;;;;;45.03;18.25;;;;;;;8.78;56.76;100161.19;5059735;28;20037;-92
2022/03/19 02:02:46;;;;;;;45.10;19.33;;;;;;;8.77;56.83;100146.16;5060914;28;20041;-94
2022/03/19 02:05:16;;;;;;;45.67;21.23;;;;;;;8.68;57.08;100138.19;5062778;28;20048;-95
2022/03/19 02:07:42;;;;;;;44.10;19.00;;;;;;;8.54;57.11;100126.63;5064033;28;20124;-95
2022/03/19 02:10:11;;;;;;;48.72;18.95;;;;;;;8.57;57.16;100122.25;5065281;28;20091;-96
2022/03/19 02:12:38;;;;;;;39.37;16.33;;;;;;;8.61;56.61;100121.38;5058958;28;20059;-94
2022/03/19 02:15:05;;;;;;;41.67;19.60;;;;;;;8.64;56.92;100134.63;5061741;28;20045;-93
2022/03/19 02:17:32;;;;;;;45.85;18.83;;;;;;;8.45;56.81;100114.25;5063024;28;20049;-94
2022/03/19 02:20:00;;;;;;;44.38;19.60;;;;;;;8.59;56.54;100140.81;5061959;28;20103;-96
2022/03/19 02:22:28;;;;;;;45.17;19.17;;;;;;;8.54;56.64;100131.94;5062186;28;20041;-93
2022/03/19 02:27:56;;;;;;;47.70;19.50;;;;;;;8.41;56.89;100112.47;5180072;27;20370;-95
2022/03/19 02:30:22;;;;;;;44.83;18.17;;;;;;;8.51;56.69;100127.53;5160305;27;20549;-96
2022/03/19 02:32:49;;;;;;;44.65;19.27;;;;;;;8.27;57.42;100115.03;5162873;27;20043;-96
2022/03/19 02:35:17;;;;;;;46.45;18.20;;;;;;;8.28;57.50;100121.22;5160498;27;20392;-95
2022/03/19 02:37:45;;;;;;;41.58;17.90;;;;;;;8.40;57.08;100111.59;5159579;27;20046;-95
2022/03/19 02:40:13;;;;;;;46.13;19.23;;;;;;;8.38;56.74;100125.69;5160217;27;20521;-96
2022/03/19 02:42:39;;;;;;;46.25;18.25;;;;;;;8.33;56.68;100123.03;5159501;27;20171;-95
2022/03/19 02:45:08;;;;;;;43.67;18.70;;;;;;;8.45;57.01;100129.28;5159474;27;20039;-94
2022/03/19 02:47:34;;;;;;;;;;;;;;;8.40;57.34;100140.75;5162060;27;20387;-95
2022/03/19 02:50:00;;;;;;;43.97;17.33;;;;;;;8.26;56.52;100110.59;5160291;27;19957;-96
2022/03/19 02:52:26;;;;;;;42.20;17.08;;;;;;;8.31;56.92;100135.38;5160399;27;20133;-95
2022/03/19 02:54:52;;;;;;;36.80;16.50;;;;;;;8.29;55.84;100092.09;5156776;27;20066;-92
2022/03/19 02:57:18;;;;;;;42.78;17.23;;;;;;;8.46;55.30;100109.81;5157738;27;20038;-91
2022/03/19 02:59:44;;;;;;;37.40;17.13;;;;;;;8.31;55.32;100092.97;5158987;27;20047;-95
2022/03/19 03:02:11;;;;;;;42.22;17.65;;;;;;;8.28;55.40;100092.06;5151288;27;20117;-95
2022/03/19 03:04:37;;;;;;;36.95;16.60;;;;;;;8.31;55.00;100087.66;5157444;27;20043;-96
2022/03/19 03:07:04;;;;;;;40.17;18.05;;;;;;;8.38;54.96;100092.09;5155883;27;20066;-95
2022/03/19 03:09:32;;;;;;;43.90;18.60;;;;;;;8.43;55.06;100098.31;5156704;27;20039;-95
2022/03/19 03:11:59;;;;;;;39.45;16.88;;;;;;;8.47;55.04;100103.66;5155983;27;20039;-93
2022/03/19 03:14:26;;;;;;;44.97;16.67;;;;;;;8.47;54.80;100096.56;5156231;27;20035;-93
2022/03/19 03:16:53;;;;;;;39.53;16.33;;;;;;;8.31;55.03;100092.97;5160603;27;20057;-95
2022/03/19 03:19:20;;;;;;;44.13;16.67;;;;;;;8.22;55.58;100082.34;5160964;27;20120;-93
2022/03/19 03:21:47;;;;;;;41.53;16.60;;;;;;;8.40;55.15;100108.94;5159094;27;20043;-94
2022/03/19 03:24:14;;;;;;;43.40;17.08;;;;;;;8.28;55.37;100092.94;5157560;27;20130;-96
2022/03/19 03:26:41;;;;;;;33.13;14.68;;;;;;;8.22;55.90;100083.22;5158720;27;20129;-96
2022/03/19 03:29:07;;;;;;;41.00;17.95;;;;;;;8.19;55.53;100093.78;5157868;27;20043;-92
2022/03/19 03:31:33;;;;;;;35.83;15.52;;;;;;;8.19;55.52;100085.84;5146767;27;20064;-95
2022/03/19 03:34:00;;;;;;;42.38;17.20;;;;;;;8.29;55.64;100104.44;5157852;27;20050;-96
2022/03/19 03:36:28;;;;;;;39.92;15.82;;;;;;;8.19;55.45;100088.50;5157521;27;20043;-95
2022/03/19 03:38:54;;;;;;;44.60;16.85;;;;;;;8.23;55.50;100089.41;5145092;27;20043;-93
2022/03/19 03:41:20;;;;;;;36.53;15.13;;;;;;;8.28;55.99;100118.56;5145877;27;20050;-93
2022/03/19 03:43:46;;;;;;;41.10;16.10;;;;;;;8.15;55.53;100093.78;5144007;27;20067;-95
2022/03/19 03:46:12;;;;;;;37.83;16.95;;;;;;;8.07;56.23;100093.78;5144309;27;20047;-95
2022/03/19 03:48:38;;;;;;;41.35;16.15;;;;;;;8.10;56.12;100100.84;5145048;27;20499;-95
2022/03/19 03:51:06;;;;;;;39.03;16.42;;;;;;;8.07;56.23;100095.50;5144319;27;20372;-94
2022/03/19 03:53:35;;;;;;;38.53;17.77;;;;;;;8.16;56.26;100111.47;5142644;27;20059;-93
2022/03/19 03:56:02;;;;;;;41.35;16.58;;;;;;;7.95;56.59;100086.63;5142152;27;20494;-93
2022/03/19 03:58:28;;;;;;;39.08;17.15;;;;;;;7.96;56.56;100099.00;5142760;27;20047;-94
2022/03/19 04:00:55;;;;;;;35.67;15.98;;;;;;;7.99;56.68;100093.72;5145180;27;20051;-93
2022/03/19 04:03:21;;;;;;;40.17;17.25;;;;;;;7.87;56.76;100084.81;5142714;27;20058;-94
2022/03/19 04:05:47;;;;;;;43.30;16.70;;;;;;;7.87;57.02;100087.47;5142890;27;20075;-96
2022/03/19 04:08:13;;;;;;;40.88;17.92;;;;;;;7.88;56.54;100084.84;5144943;27;20133;-94
2022/03/19 04:10:40;;;;;;;40.45;16.05;;;;;;;7.84;57.39;100079.53;5147558;27;20484;-94
2022/03/19 04:13:07;;;;;;;36.03;16.52;;;;;;;7.83;56.83;100083.94;5145022;27;20079;-93
2022/03/19 04:15:33;;;;;;;39.88;15.63;;;;;;;7.80;56.96;100089.22;5143756;27;20092;-94
2022/03/19 04:17:58;;;;;;;41.30;16.95;;;;;;;7.91;56.67;100102.50;5145337;27;20070;-94
2022/03/19 04:20:25;;;;;;;39.63;17.50;;;;;;;7.87;56.38;100103.38;5143942;27;20054;-95
2022/03/19 04:22:51;;;;;;;41.75;16.55;;;;;;;7.81;56.26;100106.88;5142960;27;20584;-95
2022/03/19 04:25:19;;;;;;;35.40;15.13;;;;;;;7.80;56.73;100092.72;5143566;27;20408;-95
2022/03/19 04:27:48;;;;;;;50.22;17.15;;;;;;;7.95;56.70;100123.72;5143842;27;20083;-93
2022/03/19 04:30:15;;;;;;;40.30;15.85;;;;;;;7.79;56.26;100103.34;5145208;27;20046;-95
2022/03/19 04:32:42;;;;;;;42.97;16.85;;;;;;;7.74;56.43;100091.81;5141518;27;20059;-94
2022/03/19 04:36:30;;;;;;;38.80;15.80;;;;;;;7.76;56.77;100104.22;5142215;27;20043;-95
2022/03/19 04:37:54;;;;;;;45.60;17.40;;;;;;;7.73;56.45;100084.75;5142211;27;20031;-95
2022/03/19 04:40:20;;;;;;;36.47;15.65;;;;;;;7.79;56.72;100093.63;5143798;27;20036;-92
2022/03/19 04:42:47;;;;;;;40.30;17.00;;;;;;;7.92;57.08;100125.47;5144280;27;20046;-95
2022/03/19 04:45:13;;;;;;;39.95;16.48;;;;;;;7.76;57.10;100098.91;5144603;27;20039;-91
2022/03/19 04:47:39;;;;;;;36.22;15.18;;;;;;;7.82;57.33;100120.13;5140306;27;20391;-94
2022/03/19 04:50:06;;;;;;;39.28;17.40;;;;;;;7.77;57.30;100119.22;5137918;27;20066;-93
2022/03/19 04:52:32;;;;;;;41.50;19.52;;;;;;;7.70;57.41;100109.47;5141042;27;20035;-92
2022/03/19 04:55:00;;;;;;;38.70;16.42;;;;;;;7.84;57.74;100132.50;5141533;27;20050;-93
2022/03/19 04:57:26;;;;;;;36.13;14.18;;;;;;;7.67;57.64;100108.56;5143228;27;20056;-95
2022/03/19 04:59:54;;;;;;;37.80;16.65;;;;;;;7.70;57.97;100125.34;5142752;27;20039;-94
2022/03/19 05:02:24;;;;;;;35.78;16.60;;;;;;;7.62;57.77;100105.88;5142389;27;20046;-93
2022/03/19 05:04:50;;;;;;;;;;;;;;;7.76;58.14;100143.03;5144085;27;20047;-96
2022/03/19 05:07:16;;;;;;;36.38;14.60;;;;;;;7.66;57.54;100104.16;5143097;27;19919;-95
2022/03/19 05:12:43;;;;;;;42.35;20.52;;;;;;;7.65;58.06;100123.53;5057476;27;20396;-92
2022/03/19 05:15:12;;;;;;;37.45;16.17;;;;;;;7.57;58.02;100102.34;5057831;28;20049;-94
2022/03/19 05:17:38;;;;;;;44.75;15.90;;;;;;;7.58;57.99;100120.84;5057937;28;20065;-94
2022/03/19 05:20:06;;;;;;;42.45;15.68;;;;;;;7.66;58.06;100130.63;5050718;28;20051;-94
2022/03/19 05:22:32;;;;;;;39.53;16.02;;;;;;;7.49;58.41;100104.03;5056198;28;20049;-93
2022/03/19 05:24:58;;;;;;;34.67;15.65;;;;;;;7.53;58.40;100121.72;5055863;28;20509;-94
2022/03/19 05:27:24;;;;;;;32.95;14.38;;;;;;;7.61;58.69;100138.50;5058483;28;20053;-92
2022/03/19 05:29:52;;;;;;;36.95;15.70;;;;;;;7.59;58.33;100135.00;5056368;28;20045;-94
2022/03/19 05:32:18;;;;;;;35.08;14.55;;;;;;;7.61;58.51;100128.81;5056803;28;20468;-95
2022/03/19 05:34:45;;;;;;;36.78;16.00;;;;;;;7.64;58.41;100124.44;5056447;28;20060;-94
2022/03/19 05:37:11;;;;;;;37.10;16.85;;;;;;;7.65;58.29;100132.34;5058664;28;20091;-93
2022/03/19 05:39:37;;;;;;;39.67;16.55;;;;;;;7.66;58.35;100127.97;5058043;28;20098;-92
2022/03/19 05:42:04;;;;;;;44.30;19.50;;;;;;;7.67;58.50;100132.38;5058434;28;20060;-93
2022/03/19 05:44:31;;;;;;;35.67;14.50;;;;;;;7.64;58.17;100127.06;5056609;28;20073;-94
2022/03/19 05:46:59;;;;;;;38.65;14.73;;;;;;;7.60;58.64;100124.41;5058756;28;20049;-95
2022/03/19 05:49:25;;;;;;;35.90;14.52;;;;;;;7.68;58.32;100150.06;5058604;28;20491;-91
2022/03/19 05:51:51;;;;;;;45.15;16.75;;;;;;;7.56;58.49;100122.59;5057195;28;20068;-93
2022/03/19 05:54:17;;;;;;;44.92;17.08;;;;;;;7.58;58.41;100126.16;5054808;28;20044;-92
2022/03/19 05:56:42;;;;;;;46.50;17.55;;;;;;;7.66;58.57;100139.44;5056364;28;20602;-93
2022/03/19 05:59:08;;;;;;;43.03;15.68;;;;;;;7.63;58.44;100117.34;5057295;28;20049;-95
2022/03/19 06:01:35;;;;;;;41.97;16.30;;;;;;;7.67;58.20;100122.66;5057852;28;20076;-95
2022/03/19 06:04:02;;;;;;;43.53;19.38;;;;;;;7.80;58.14;100137.75;5055941;28;20052;-93
2022/03/19 06:06:29;;;;;;;32.95;14.20;;;;;;;7.77;58.40;100129.81;5041130;28;20038;-93
2022/03/19 06:08:55;;;;;;;38.55;14.65;;;;;;;7.76;57.95;100125.41;5044893;28;20045;-91
2022/03/19 06:11:21;;;;;;;35.30;14.93;;;;;;;7.75;58.54;100123.59;5055145;28;20084;-91
2022/03/19 06:13:47;;;;;;;46.53;18.77;;;;;;;7.75;58.11;100130.69;5053928;28;20040;-94
2022/03/19 06:16:13;;;;;;;42.75;15.43;;;;;;;7.84;57.99;100143.97;5056844;28;20139;-93
2022/03/19 06:18:39;;;;;;;34.65;14.68;;;;;;;7.84;57.56;100133.38;5057786;28;20087;-95
2022/03/19 06:21:10;;;;;;;40.75;16.77;;;;;;;7.75;58.01;100136.84;5054275;28;20056;-91
2022/03/19 06:23:36;;;;;;;39.97;15.27;;;;;;;7.81;57.79;100133.38;5036883;28;20053;-94
2022/03/19 06:26:02;;;;;;;35.72;15.43;;;;;;;7.88;57.96;100140.47;5043692;28;20137;-94
2022/03/19 06:28:28;;;;;;;38.25;15.35;;;;;;;7.91;57.88;100136.94;5043103;28;20037;-92
2022/03/19 06:30:54;;;;;;;35.47;15.68;;;;;;;7.97;57.59;100137.84;5043947;28;20041;-93
2022/03/19 06:33:21;;;;;;;38.65;15.20;;;;;;;7.93;58.03;100137.84;5043094;28;20038;-92
2022/03/19 06:38:46;;;;;;;37.45;14.35;;;;;;;7.99;58.03;100117.56;5138179;27;20395;-94
2022/03/19 06:41:13;;;;;;;36.50;14.05;;;;;;;7.96;57.65;100117.56;5138688;27;20126;-95
2022/03/19 06:43:39;;;;;;;110.88;34.83;;;;;;;8.02;57.78;100122.91;5138924;27;20039;-93
2022/03/19 06:46:05;;;;;;;54.70;24.45;;;;;;;8.10;57.68;100145.88;5139633;27;20381;-95
2022/03/19 06:48:31;;;;;;;38.13;17.00;;;;;;;8.07;57.82;100140.53;5137550;27;20077;-95
2022/03/19 06:50:57;;;;;;;39.88;18.63;;;;;;;8.02;58.07;100116.69;5137541;27;20065;-92
2022/03/19 06:53:24;;;;;;;40.92;16.25;;;;;;;8.08;58.21;100122.00;5137061;27;20040;-92
2022/03/19 06:55:52;;;;;;;58.97;20.20;;;;;;;8.16;58.02;100119.41;5138205;27;20047;-95
2022/03/19 06:58:20;;;;;;;42.10;17.63;;;;;;;8.31;57.81;100139.81;5139677;27;20173;-94
2022/03/19 07:00:46;;;;;;;40.45;17.13;;;;;;;8.21;58.09;100115.00;5139095;27;20107;-91
2022/03/19 07:03:12;;;;;;;33.83;16.50;;;;;;;8.24;58.08;100117.69;5137659;28;20088;-95
2022/03/19 07:05:38;;;;;;;40.40;15.38;;;;;;;8.34;58.30;100110.66;5135862;27;20047;-94
2022/03/19 07:08:08;;;;;;;41.15;15.50;;;;;;;8.33;58.01;100119.50;5136626;27;20525;-94
2022/03/19 07:10:34;;;;;;;37.20;15.45;;;;;;;8.34;58.65;100126.53;5137774;27;20050;-93
2022/03/19 07:13:02;;;;;;;39.72;17.30;;;;;;;8.45;58.22;100113.38;5139100;27;20121;-92
2022/03/19 07:15:28;;;;;;;47.03;17.03;;;;;;;8.56;57.73;100124.88;5126653;27;20556;-90
2022/03/19 07:17:55;;;;;;;32.65;14.45;;;;;;;8.49;58.28;100117.81;5137159;27;20061;-93
2022/03/19 07:20:22;;;;;;;36.88;14.80;;;;;;;8.65;57.63;100106.34;5142469;27;20051;-93
2022/03/19 07:22:53;;;;;;;43.40;16.88;;;;;;;8.74;58.23;100117.00;5132832;27;20405;-96
2022/03/19 07:25:22;;;;;;;41.35;17.17;;;;;;;8.93;57.64;100148.84;5139061;28;20126;-90
2022/03/19 07:27:50;;;;;;;49.40;19.70;;;;;;;8.74;57.39;100108.13;5140783;27;20036;-93
2022/03/19 07:30:18;;;;;;;37.20;16.45;;;;;;;8.81;57.86;100125.84;5137740;27;20043;-93
2022/03/19 07:32:44;;;;;;;46.08;18.95;;;;;;;8.78;58.01;100142.63;5137458;27;20062;-91
2022/03/19 07:35:12;;;;;;;45.78;21.25;;;;;;;8.61;57.87;100108.13;5137133;27;20055;-92
2022/03/19 07:37:40;;;;;;;41.20;16.55;;;;;;;8.91;57.49;100132.91;5137888;27;20047;-93
2022/03/19 07:40:08;;;;;;;47.28;18.08;;;;;;;8.86;57.73;100113.47;5137891;28;20099;-93
2022/03/19 07:42:34;;;;;;;36.00;17.88;;;;;;;8.82;57.74;100107.25;5139075;27;20131;-93
2022/03/19 07:45:02;;;;;;;32.83;15.23;;;;;;;8.96;57.35;100098.44;5139412;27;20131;-92
2022/03/19 07:47:30;;;;;;;37.70;17.05;;;;;;;8.96;57.60;100119.66;5137483;27;20043;-93
2022/03/19 07:49:56;;;;;;;41.67;17.15;;;;;;;8.94;57.78;100129.41;5124314;27;20101;-93
2022/03/19 07:52:24;;;;;;;41.85;19.15;;;;;;;8.77;58.00;100092.22;5124581;28;20040;-93
2022/03/19 07:54:52;;;;;;;38.25;16.17;;;;;;;9.08;57.26;100118.78;5124696;28;20047;-92
2022/03/19 07:57:18;;;;;;;48.35;18.85;;;;;;;9.11;57.37;100129.38;5124737;28;20084;-93
2022/03/19 07:59:44;;;;;;;44.67;17.67;;;;;;;8.90;57.40;100109.94;5122804;28;20039;-95
2022/03/19 08:02:10;;;;;;;48.83;21.58;;;;;;;8.91;57.30;100108.16;5121663;27;20040;-94
2022/03/19 08:04:37;;;;;;;49.83;19.85;;;;;;;9.14;57.09;100130.28;5121219;27;20055;-93
2022/03/19 08:07:03;;;;;;;71.18;28.38;;;;;;;9.19;56.70;100107.28;5121543;28;20043;-94
2022/03/19 08:09:29;;;;;;;47.13;18.48;;;;;;;9.31;56.61;100121.47;5120584;28;20102;-92
2022/03/19 08:11:56;;;;;;;36.17;16.15;;;;;;;9.35;56.22;100109.97;5121692;28;20039;-94
2022/03/19 08:14:22;;;;;;;31.95;15.10;;;;;;;9.44;55.73;100101.97;5121009;28;20062;-94
2022/03/19 08:16:48;;;;;;;39.50;16.75;;;;;;;9.57;55.57;100093.09;5122571;28;20040;-94
2022/03/19 08:19:15;;;;;;;36.60;15.63;;;;;;;9.82;54.97;100101.00;5122832;28;20044;-94
2022/03/19 08:21:44;;;;;;;35.90;15.32;;;;;;;10.08;54.14;100123.09;5125300;28;20039;-93
2022/03/19 08:24:10;;;;;;;43.20;18.65;;;;;;;9.79;54.56;100093.94;5121772;28;20042;-94
2022/03/19 08:26:37;;;;;;;39.20;17.23;;;;;;;9.59;55.14;100093.09;5104988;28;20044;-92
2022/03/19 08:29:04;;;;;;;39.55;15.32;;;;;;;9.82;54.43;100104.56;5109173;28;20048;-95
2022/03/19 08:31:30;;;;;;;34.97;15.20;;;;;;;9.79;54.06;100088.63;5119739;28;20048;-93
2022/03/19 08:33:56;;;;;;;38.33;16.85;;;;;;;10.01;54.37;100137.25;5122625;28;20083;-92
2022/03/19 08:36:22;;;;;;;42.40;19.63;;;;;;;9.74;53.81;100097.50;5119755;28;20082;-93
2022/03/19 08:41:54;;;;;;;38.42;15.85;;;;;;;10.04;53.93;100129.31;5057223;27;20381;-94
2022/03/19 08:44:21;;;;;;;41.33;18.58;;;;;;;10.22;53.40;100092.91;5060848;28;20048;-93
2022/03/19 08:46:47;;;;;;;42.03;14.63;;;;;;;10.45;52.31;100104.34;5061921;28;20049;-95
2022/03/19 08:49:13;;;;;;;195.13;75.53;;;;;;;10.58;51.61;100096.28;5064901;28;20041;-95
2022/03/19 08:51:41;;;;;;;48.33;19.95;;;;;;;10.77;51.80;100097.06;5062960;28;20041;-95
2022/03/19 08:54:09;;;;;;;186.32;91.60;;;;;;;10.73;51.35;100096.19;5062583;28;20067;-94
2022/03/19 08:56:49;;;;;;;80.38;38.90;;;;;;;10.73;51.78;100129.91;5060412;28;20630;-94
2022/03/19 08:59:20;;;;;;;40.90;16.20;;;;;;;10.55;52.05;100109.63;5038267;28;20048;-96
2022/03/19 09:01:49;;;;;;;64.60;30.30;;;;;;;10.53;52.58;100087.47;5049244;28;20097;-95
2022/03/19 09:04:19;;;;;;;44.92;17.20;;;;;;;10.56;52.16;100093.66;5059694;28;20052;-95
2022/03/19 09:06:45;;;;;;;;;;;;;;;10.62;52.00;100106.91;5060076;28;20123;-93
2022/03/19 09:09:14;;;;;;;32.97;15.25;;;;;;;10.63;52.51;100075.88;5058325;28;20362;-94
2022/03/19 09:11:40;;;;;;;40.30;17.63;;;;;;;10.77;51.66;100091.75;5073342;28;20072;-94
2022/03/19 09:14:08;;;;;;;48.35;17.40;;;;;;;10.56;51.94;100069.72;5058226;28;20056;-95
2022/03/19 09:16:40;;;;;;;47.58;22.08;;;;;;;10.95;52.24;100088.97;5062032;28;20045;-95
2022/03/19 09:19:06;;;;;;;42.28;17.17;;;;;;;10.60;52.30;100058.13;5057606;28;20131;-95
2022/03/19 09:21:33;;;;;;;45.95;22.67;;;;;;;10.32;52.16;100068.06;5056394;28;20056;-95
2022/03/19 09:23:59;;;;;;;41.28;16.83;;;;;;;10.81;52.09;100056.25;5057829;28;20037;-95
2022/03/19 09:26:25;;;;;;;35.30;17.38;;;;;;;11.18;50.96;100061.25;5062542;28;20557;-94
2022/03/19 09:28:51;;;;;;;52.92;24.48;;;;;;;11.20;50.12;100071.00;5058239;28;20102;-93
2022/03/19 09:31:18;;;;;;;38.90;15.98;;;;;;;11.35;50.48;100090.41;5060329;28;20124;-94
2022/03/19 09:33:46;;;;;;;40.22;16.15;;;;;;;11.09;51.09;100048.91;5057641;28;20053;-95
2022/03/19 09:36:13;;;;;;;44.53;22.17;;;;;;;11.29;49.94;100043.41;5061341;28;20479;-94
2022/03/19 09:38:40;;;;;;;46.47;23.55;;;;;;;11.31;50.24;100045.16;5059982;28;20071;-95
2022/03/19 09:41:07;;;;;;;37.17;17.63;;;;;;;11.10;50.70;100056.91;5057648;28;20051;-94
2022/03/19 09:43:34;;;;;;;41.03;18.17;;;;;;;11.11;50.86;100044.47;5067121;28;20053;-95
2022/03/19 09:46:02;;;;;;;38.95;15.73;;;;;;;11.26;50.63;100059.44;5057913;28;20495;-92
2022/03/19 09:48:28;;;;;;;39.03;19.27;;;;;;;11.12;50.16;100050.66;5057095;28;20048;-95
2022/03/19 09:50:58;;;;;;;44.20;17.13;;;;;;;11.47;49.63;100053.91;5058370;28;20033;-95
2022/03/19 09:53:25;;;;;;;35.63;16.25;;;;;;;11.59;49.74;100066.19;5030968;28;20057;-95
2022/03/19 09:55:54;;;;;;;44.13;18.90;;;;;;;11.41;49.57;100037.97;5039651;28;20514;-93
2022/03/19 09:58:20;;;;;;;44.70;16.23;;;;;;;11.78;49.77;100042.03;5046480;28;20124;-96
2022/03/19 10:00:46;;;;;;;43.17;16.40;;;;;;;11.99;48.95;100046.22;5045471;28;20049;-95
2022/03/19 10:03:17;;;;;;;34.30;15.52;;;;;;;12.05;48.91;100038.16;5047217;28;20086;-95
2022/03/19 10:08:54;;;;;;;41.72;17.05;;;;;;;12.57;48.25;100063.25;5121645;27;20395;-94
2022/03/19 10:11:20;;;;;;;43.15;16.98;;;;;;;12.33;48.52;100028.00;5120432;28;20047;-95
2022/03/19 10:13:48;;;;;;;36.20;15.85;;;;;;;12.25;47.10;100041.47;5117475;28;20074;-92
2022/03/19 10:16:19;;;;;;;36.42;16.35;;;;;;;12.37;47.29;100035.06;5116896;28;20044;-92
2022/03/19 10:18:54;;;;;;;37.45;16.80;;;;;;;12.50;47.25;100022.44;5118022;28;20095;-95
2022/03/19 10:21:20;;;;;;;39.92;18.13;;;;;;;12.70;46.71;100030.13;5118907;28;20084;-95
2022/03/19 10:23:48;;;;;;;39.60;15.77;;;;;;;12.70;47.30;100047.00;5118376;28;20131;-93
2022/03/19 10:26:23;;;;;;;46.78;18.25;;;;;;;12.48;48.21;100051.78;5118499;28;20044;-92
2022/03/19 10:28:56;;;;;;;43.78;17.38;;;;;;;12.85;47.34;100055.69;5120810;28;20079;-93
2022/03/19 10:31:29;;;;;;;41.50;15.93;;;;;;;12.80;47.27;100055.78;5116653;28;20040;-94
2022/03/19 10:33:55;;;;;;;45.45;19.02;;;;;;;12.20;49.19;100045.06;5107564;28;20043;-93
2022/03/19 10:36:29;;;;;;;51.22;17.80;;;;;;;12.03;48.72;100042.63;5116488;28;20044;-94
2022/03/19 10:38:57;;;;;;;44.13;16.65;;;;;;;11.84;49.43;100023.25;5113748;28;20040;-94
2022/03/19 10:41:23;;;;;;;43.00;17.00;;;;;;;12.48;48.85;100043.78;5118418;28;20047;-94
2022/03/19 10:43:49;;;;;;;45.30;20.77;;;;;;;12.70;47.15;100025.66;5117942;28;20058;-95
2022/03/19 10:46:18;;;;;;;43.85;17.52;;;;;;;12.18;48.57;100026.41;5115268;28;20461;-93
2022/03/19 10:48:49;;;;;;;40.08;16.42;;;;;;;12.67;48.65;100030.19;5117121;28;20054;-94
2022/03/19 10:51:20;;;;;;;47.15;17.35;;;;;;;12.66;47.31;100018.59;5116965;28;20039;-95
2022/03/19 10:53:47;;;;;;;41.95;18.17;;;;;;;12.88;47.45;100019.16;5116065;28;20051;-92
2022/03/19 10:56:15;;;;;;;42.85;18.02;;;;;;;12.85;46.72;100002.31;5117516;28;20056;-94
2022/03/19 10:58:41;;;;;;;40.33;16.83;;;;;;;12.95;47.54;100010.13;5118634;28;20439;-93
2022/03/19 11:01:09;;;;;;;40.08;15.90;;;;;;;12.54;47.64;100006.34;5114513;28;20097;-95
2022/03/19 11:03:37;;;;;;;38.20;16.35;;;;;;;12.55;47.51;99993.88;5115386;28;20397;-93
2022/03/19 11:06:05;;;;;;;39.30;17.55;;;;;;;12.93;47.13;100033.31;5116007;28;20073;-94
2022/03/19 11:08:38;;;;;;;48.70;19.65;;;;;;;12.82;47.16;100008.59;5115007;28;20107;-93
2022/03/19 11:11:09;;;;;;;48.78;19.38;;;;;;;12.68;47.34;100005.25;5117136;28;20040;-93
2022/03/19 11:13:42;;;;;;;43.22;16.48;;;;;;;12.41;48.24;99991.44;5113651;28;20032;-94
2022/03/19 11:16:10;;;;;;;40.72;17.95;;;;;;;12.60;48.34;99991.13;5109437;28;20040;-93
2022/03/19 11:18:37;;;;;;;35.55;14.82;;;;;;;12.59;48.37;99994.72;5108309;28;20067;-94
2022/03/19 11:21:04;;;;;;;35.28;15.60;;;;;;;12.59;48.93;99979.59;5102801;28;20044;-95
2022/03/19 11:23:38;;;;;;;39.63;16.63;;;;;;;12.67;48.60;100006.16;5103426;28;20054;-91
2022/03/19 11:26:08;;;;;;;30.80;13.90;;;;;;;12.24;49.30;99983.66;5101030;28;20044;-93
2022/03/19 11:28:35;;;;;;;28.40;13.77;;;;;;;12.29;49.38;99984.47;5103421;28;20408;-93
2022/03/19 11:31:04;;;;;;;33.15;16.20;;;;;;;12.29;49.26;99991.59;5102931;28;20067;-94